sensor_id;sensor_type;location;lat;lon;timestamp;pressure;altitude;pressure_sealevel;temperature;humidity
14067;BME280;7108;42.684;23.350;2022-12-20T00:00:50;97161.66;;;0.78;100.00
14067;BME280;7108;42.684;23.350;2022-12-20T00:03:16;97190.19;;;0.92;100.00
14067;BME280;7108;42.684;23.350;2022-12-20T00:05:42;97212.31;;;1.03;100.00
14067;BME280;7108;42.684;23.350;2022-12-20T00:08:08;97217.16;;;1.06;100.00
14067;BME280;7108;42.684;23.350;2022-12-20T00:10:36;97214.94;;;0.98;100.00
14067;BME280;7108;42.684;23.350;2022-12-20T00:13:01;97181.00;;;0.78;100.00
14067;BME280;7108;42.684;23.350;2022-12-20T00:15:26;97162.28;;;0.63;100.00
14067;BME280;7108;42.684;23.350;2022-12-20T00:17:52;97211.75;;;0.96;100.00
14067;BME280;7108;42.684;23.350;2022-12-20T00:20:17;97196.44;;;0.81;100.00
14067;BME280;7108;42.684;23.350;2022-12-20T00:22:43;97206.53;;;0.84;100.00
14067;BME280;7108;42.684;23.350;2022-12-20T00:25:09;97219.75;;;1.01;100.00
14067;BME280;7108;42.684;23.350;2022-12-20T00:27:34;97227.19;;;1.04;100.00
14067;BME280;7108;42.684;23.350;2022-12-20T00:29:59;97200.94;;;0.81;100.00
14067;BME280;7108;42.684;23.350;2022-12-20T00:32:26;97225.84;;;1.01;100.00
14067;BME280;7108;42.684;23.350;2022-12-20T00:34:51;97191.19;;;0.86;100.00
14067;BME280;7108;42.684;23.350;2022-12-20T00:37:17;97202.34;;;0.88;100.00
14067;BME280;7108;42.684;23.350;2022-12-20T00:39:42;97205.66;;;1.00;100.00
14067;BME280;7108;42.684;23.350;2022-12-20T00:42:08;97221.91;;;1.04;100.00
14067;BME280;7108;42.684;23.350;2022-12-20T00:44:33;97179.22;;;0.84;100.00
14067;BME280;7108;42.684;23.350;2022-12-20T00:46:58;97179.97;;;0.79;100.00
14067;BME280;7108;42.684;23.350;2022-12-20T00:49:27;97153.84;;;0.66;100.00
14067;BME280;7108;42.684;23.350;2022-12-20T00:51:52;97214.63;;;0.94;100.00
14067;BME280;7108;42.684;23.350;2022-12-20T00:54:18;97215.97;;;0.97;100.00
14067;BME280;7108;42.684;23.350;2022-12-20T00:56:43;97184.16;;;0.75;100.00
14067;BME280;7108;42.684;23.350;2022-12-20T00:59:09;97238.03;;;0.97;100.00
14067;BME280;7108;42.684;23.350;2022-12-20T01:01:34;97223.72;;;0.98;100.00
14067;BME280;7108;42.684;23.350;2022-12-20T01:04:00;97180.47;;;0.76;100.00
14067;BME280;7108;42.684;23.350;2022-12-20T01:06:27;97198.53;;;0.79;100.00
14067;BME280;7108;42.684;23.350;2022-12-20T01:08:53;97227.16;;;0.99;100.00
14067;BME280;7108;42.684;23.350;2022-12-20T01:11:21;97209.19;;;0.84;100.00
14067;BME280;7108;42.684;23.350;2022-12-20T01:13:50;97207.25;;;0.75;100.00
14067;BME280;7108;42.684;23.350;2022-12-20T01:16:21;97211.59;;;0.86;100.00
14067;BME280;7108;42.684;23.350;2022-12-20T01:18:48;97203.06;;;0.79;100.00
14067;BME280;7108;42.684;23.350;2022-12-20T01:21:15;97183.91;;;0.77;100.00
14067;BME280;7108;42.684;23.350;2022-12-20T01:23:41;97159.56;;;0.59;100.00
14067;BME280;7108;42.684;23.350;2022-12-20T01:26:11;97203.59;;;0.81;100.00
14067;BME280;7108;42.684;23.350;2022-12-20T01:28:38;97200.19;;;0.85;100.00
14067;BME280;7108;42.684;23.350;2022-12-20T01:31:09;97196.25;;;0.88;100.00
14067;BME280;7108;42.684;23.350;2022-12-20T01:33:35;97192.81;;;0.87;100.00
14067;BME280;7108;42.684;23.350;2022-12-20T01:36:04;97194.59;;;0.82;100.00
14067;BME280;7108;42.684;23.350;2022-12-20T01:38:30;97188.53;;;0.86;100.00
14067;BME280;7108;42.684;23.350;2022-12-20T01:40:56;97171.69;;;0.76;100.00
14067;BME280;7108;42.684;23.350;2022-12-20T01:43:22;97172.22;;;0.73;100.00
14067;BME280;7108;42.684;23.350;2022-12-20T01:45:48;97177.31;;;0.79;100.00
14067;BME280;7108;42.684;23.350;2022-12-20T01:48:17;97158.06;;;0.67;100.00
14067;BME280;7108;42.684;23.350;2022-12-20T01:50:46;97167.03;;;0.62;100.00
14067;BME280;7108;42.684;23.350;2022-12-20T01:53:13;97140.94;;;0.54;100.00
14067;BME280;7108;42.684;23.350;2022-12-20T01:55:39;97171.16;;;0.74;100.00
14067;BME280;7108;42.684;23.350;2022-12-20T01:58:08;97149.56;;;0.65;100.00
14067;BME280;7108;42.684;23.350;2022-12-20T02:00:34;97150.38;;;0.66;100.00
14067;BME280;7108;42.684;23.350;2022-12-20T02:03:04;97153.28;;;0.64;100.00
14067;BME280;7108;42.684;23.350;2022-12-20T02:05:36;97145.22;;;0.55;100.00
14067;BME280;7108;42.684;23.350;2022-12-20T02:08:02;97126.03;;;0.48;100.00
14067;BME280;7108;42.684;23.350;2022-12-20T02:10:43;97126.53;;;0.45;100.00
14067;BME280;7108;42.684;23.350;2022-12-20T02:14:03;97081.19;;;0.20;100.00
14067;BME280;7108;42.684;23.350;2022-12-20T02:16:03;97097.16;;;0.25;100.00
14067;BME280;7108;42.684;23.350;2022-12-20T02:18:37;97135.34;;;0.50;100.00
14067;BME280;7108;42.684;23.350;2022-12-20T02:21:21;97115.25;;;0.33;100.00
14067;BME280;7108;42.684;23.350;2022-12-20T02:32:19;97118.28;;;0.20;100.00
14067;BME280;7108;42.684;23.350;2022-12-20T02:34:46;97150.66;;;0.43;100.00
14067;BME280;7108;42.684;23.350;2022-12-20T02:37:12;97168.13;;;0.44;100.00
14067;BME280;7108;42.684;23.350;2022-12-20T02:39:39;97150.59;;;0.38;100.00
14067;BME280;7108;42.684;23.350;2022-12-20T02:42:11;97121.97;;;0.19;100.00
14067;BME280;7108;42.684;23.350;2022-12-20T02:44:43;97088.22;;;-0.12;100.00
14067;BME280;7108;42.684;23.350;2022-12-20T02:47:33;97147.31;;;0.31;100.00
14067;BME280;7108;42.684;23.350;2022-12-20T02:50:02;97155.38;;;0.41;100.00
14067;BME280;7108;42.684;23.350;2022-12-20T02:52:29;97081.81;;;0.05;100.00
14067;BME280;7108;42.684;23.350;2022-12-20T02:54:56;97124.25;;;0.32;100.00
14067;BME280;7108;42.684;23.350;2022-12-20T03:00:01;97139.59;;;0.51;100.00
14067;BME280;7108;42.684;23.350;2022-12-20T03:02:28;97136.63;;;0.48;100.00
14067;BME280;7108;42.684;23.350;2022-12-20T03:05:14;97144.41;;;0.54;100.00
14067;BME280;7108;42.684;23.350;2022-12-20T03:07:39;97123.72;;;0.30;100.00
14067;BME280;7108;42.684;23.350;2022-12-20T03:10:05;97104.16;;;0.14;100.00
14067;BME280;7108;42.684;23.350;2022-12-20T03:12:31;97150.59;;;0.38;100.00
14067;BME280;7108;42.684;23.350;2022-12-20T03:14:56;97089.25;;;0.08;100.00
14067;BME280;7108;42.684;23.350;2022-12-20T03:17:22;97127.78;;;0.37;100.00
14067;BME280;7108;42.684;23.350;2022-12-20T03:19:47;97134.44;;;0.40;100.00
14067;BME280;7108;42.684;23.350;2022-12-20T03:22:13;97103.19;;;0.20;100.00
14067;BME280;7108;42.684;23.350;2022-12-20T03:24:38;97091.72;;;0.15;100.00
14067;BME280;7108;42.684;23.350;2022-12-20T03:27:03;97094.06;;;0.11;100.00
14067;BME280;7108;42.684;23.350;2022-12-20T03:29:29;97124.06;;;0.17;100.00
14067;BME280;7108;42.684;23.350;2022-12-20T03:31:54;97117.16;;;0.16;100.00
14067;BME280;7108;42.684;23.350;2022-12-20T03:34:19;97119.03;;;0.15;100.00
14067;BME280;7108;42.684;23.350;2022-12-20T03:36:45;97100.28;;;0.00;100.00
14067;BME280;7108;42.684;23.350;2022-12-20T03:39:10;97110.75;;;0.12;100.00
14067;BME280;7108;42.684;23.350;2022-12-20T03:41:36;97129.56;;;0.10;100.00
14067;BME280;7108;42.684;23.350;2022-12-20T03:44:01;97114.03;;;0.19;100.00
14067;BME280;7108;42.684;23.350;2022-12-20T03:46:27;97128.19;;;0.29;100.00
14067;BME280;7108;42.684;23.350;2022-12-20T03:48:52;97080.19;;;0.04;100.00
14067;BME280;7108;42.684;23.350;2022-12-20T03:51:17;97112.88;;;0.10;100.00
14067;BME280;7108;42.684;23.350;2022-12-20T03:53:43;97114.88;;;0.03;100.00
14067;BME280;7108;42.684;23.350;2022-12-20T03:56:08;97105.06;;;0.03;100.00
14067;BME280;7108;42.684;23.350;2022-12-20T03:58:34;97094.34;;;-0.06;100.00
14067;BME280;7108;42.684;23.350;2022-12-20T04:01:00;97114.09;;;0.02;100.00
14067;BME280;7108;42.684;23.350;2022-12-20T04:03:25;97109.88;;;-0.15;100.00
14067;BME280;7108;42.684;23.350;2022-12-20T04:05:50;97094.72;;;-0.19;100.00
14067;BME280;7108;42.684;23.350;2022-12-20T04:08:16;97122.28;;;0.01;100.00
14067;BME280;7108;42.684;23.350;2022-12-20T04:10:41;97119.63;;;0.01;100.00
14067;BME280;7108;42.684;23.350;2022-12-20T04:13:25;97106.25;;;-0.09;100.00
14067;BME280;7108;42.684;23.350;2022-12-20T04:15:50;97061.91;;;-0.18;100.00
14067;BME280;7108;42.684;23.350;2022-12-20T04:18:15;97106.06;;;-0.03;100.00
14067;BME280;7108;42.684;23.350;2022-12-20T04:20:41;97075.22;;;-0.13;100.00
14067;BME280;7108;42.684;23.350;2022-12-20T04:23:06;97098.69;;;-0.01;100.00
14067;BME280;7108;42.684;23.350;2022-12-20T04:25:32;97111.72;;;0.06;100.00
14067;BME280;7108;42.684;23.350;2022-12-20T04:27:57;97098.69;;;-0.01;100.00
14067;BME280;7108;42.684;23.350;2022-12-20T04:30:22;97095.25;;;-0.01;100.00
14067;BME280;7108;42.684;23.350;2022-12-20T04:32:48;97091.28;;;0.01;100.00
14067;BME280;7108;42.684;23.350;2022-12-20T04:35:13;97073.09;;;-0.11;100.00
14067;BME280;7108;42.684;23.350;2022-12-20T04:37:39;97086.59;;;-0.13;100.00
14067;BME280;7108;42.684;23.350;2022-12-20T04:40:05;97094.09;;;-0.05;100.00
14067;BME280;7108;42.684;23.350;2022-12-20T04:42:31;97082.78;;;-0.01;100.00
14067;BME280;7108;42.684;23.350;2022-12-20T04:44:56;97071.50;;;-0.12;100.00
14067;BME280;7108;42.684;23.350;2022-12-20T04:47:22;97036.56;;;-0.31;100.00
14067;BME280;7108;42.684;23.350;2022-12-20T04:49:47;97092.16;;;0.07;100.00
14067;BME280;7108;42.684;23.350;2022-12-20T04:52:13;97116.44;;;0.20;100.00
14067;BME280;7108;42.684;23.350;2022-12-20T04:54:57;97105.03;;;0.20;100.00
14067;BME280;7108;42.684;23.350;2022-12-20T04:57:22;97055.06;;;-0.14;100.00
14067;BME280;7108;42.684;23.350;2022-12-20T04:59:47;97074.31;;;-0.19;100.00
14067;BME280;7108;42.684;23.350;2022-12-20T05:02:13;97105.44;;;0.12;100.00
14067;BME280;7108;42.684;23.350;2022-12-20T05:04:38;97091.94;;;0.13;100.00
14067;BME280;7108;42.684;23.350;2022-12-20T05:07:03;97035.47;;;-0.13;100.00
14067;BME280;7108;42.684;23.350;2022-12-20T05:09:29;97068.00;;;0.03;100.00
14067;BME280;7108;42.684;23.350;2022-12-20T05:11:54;97049.81;;;-0.09;100.00
14067;BME280;7108;42.684;23.350;2022-12-20T05:14:20;97072.00;;;0.06;100.00
14067;BME280;7108;42.684;23.350;2022-12-20T05:16:45;97102.50;;;0.30;100.00
14067;BME280;7108;42.684;23.350;2022-12-20T05:19:11;97080.00;;;0.11;100.00
14067;BME280;7108;42.684;23.350;2022-12-20T05:21:36;97091.03;;;0.24;100.00
14067;BME280;7108;42.684;23.350;2022-12-20T05:24:20;97075.13;;;0.24;100.00
14067;BME280;7108;42.684;23.350;2022-12-20T05:27:04;97084.22;;;0.28;100.00
14067;BME280;7108;42.684;23.350;2022-12-20T05:29:29;97059.09;;;0.14;100.00
14067;BME280;7108;42.684;23.350;2022-12-20T05:31:55;97096.16;;;0.31;100.00
14067;BME280;7108;42.684;23.350;2022-12-20T05:34:20;97101.31;;;0.21;100.00
14067;BME280;7108;42.684;23.350;2022-12-20T05:36:45;97073.34;;;0.08;100.00
14067;BME280;7108;42.684;23.350;2022-12-20T05:39:11;97102.75;;;0.07;100.00
14067;BME280;7108;42.684;23.350;2022-12-20T05:41:37;97101.94;;;0.06;100.00
14067;BME280;7108;42.684;23.350;2022-12-20T05:44:05;97105.06;;;0.03;100.00
14067;BME280;7108;42.684;23.350;2022-12-20T05:46:31;97089.13;;;-0.02;100.00
14067;BME280;7108;42.684;23.350;2022-12-20T05:48:56;97129.88;;;0.14;100.00
14067;BME280;7108;42.684;23.350;2022-12-20T05:51:23;97107.06;;;0.13;100.00
14067;BME280;7108;42.684;23.350;2022-12-20T05:53:48;97060.09;;;-0.13;100.00
14067;BME280;7108;42.684;23.350;2022-12-20T05:56:14;97110.22;;;0.10;100.00
14067;BME280;7108;42.684;23.350;2022-12-20T05:58:39;97088.09;;;-0.01;100.00
14067;BME280;7108;42.684;23.350;2022-12-20T06:01:06;97099.00;;;0.03;100.00
14067;BME280;7108;42.684;23.350;2022-12-20T06:03:31;97101.13;;;0.06;100.00
14067;BME280;7108;42.684;23.350;2022-12-20T06:05:57;97107.72;;;0.03;100.00
14067;BME280;7108;42.684;23.350;2022-12-20T06:08:23;97117.47;;;0.19;100.00
14067;BME280;7108;42.684;23.350;2022-12-20T06:10:49;97106.88;;;0.19;100.00
14067;BME280;7108;42.684;23.350;2022-12-20T06:13:15;97118.41;;;0.30;100.00
14067;BME280;7108;42.684;23.350;2022-12-20T06:15:40;97105.41;;;0.28;100.00
14067;BME280;7108;42.684;23.350;2022-12-20T06:18:06;97086.84;;;0.07;100.00
14067;BME280;7108;42.684;23.350;2022-12-20T06:20:34;97102.59;;;0.18;100.00
14067;BME280;7108;42.684;23.350;2022-12-20T06:23:01;97115.81;;;0.35;100.00
14067;BME280;7108;42.684;23.350;2022-12-20T06:25:27;97099.28;;;0.28;100.00
14067;BME280;7108;42.684;23.350;2022-12-20T06:27:53;97107.91;;;0.40;100.00
14067;BME280;7108;42.684;23.350;2022-12-20T06:30:19;97088.75;;;0.33;100.00
14067;BME280;7108;42.684;23.350;2022-12-20T06:32:47;97085.50;;;0.26;100.00
14067;BME280;7108;42.684;23.350;2022-12-20T06:35:13;97110.25;;;0.36;100.00
14067;BME280;7108;42.684;23.350;2022-12-20T06:37:39;97102.44;;;0.25;100.00
14067;BME280;7108;42.684;23.350;2022-12-20T06:40:07;97108.97;;;0.17;100.00
14067;BME280;7108;42.684;23.350;2022-12-20T06:42:32;97108.41;;;0.15;100.00
14067;BME280;7108;42.684;23.350;2022-12-20T06:44:58;97092.41;;;0.05;100.00
14067;BME280;7108;42.684;23.350;2022-12-20T06:47:23;97088.75;;;0.11;100.00
14067;BME280;7108;42.684;23.350;2022-12-20T06:49:49;97088.25;;;0.14;100.00
14067;BME280;7108;42.684;23.350;2022-12-20T06:52:14;97062.06;;;0.18;100.00
14067;BME280;7108;42.684;23.350;2022-12-20T06:54:40;97094.03;;;0.54;100.00
14067;BME280;7108;42.684;23.350;2022-12-20T06:57:05;97087.88;;;0.75;100.00
14067;BME280;7108;42.684;23.350;2022-12-20T06:59:31;97027.22;;;0.57;100.00
14067;BME280;7108;42.684;23.350;2022-12-20T07:01:56;97083.28;;;0.97;100.00
14067;BME280;7108;42.684;23.350;2022-12-20T07:04:22;97079.88;;;1.32;100.00
14067;BME280;7108;42.684;23.350;2022-12-20T07:06:50;97054.41;;;1.78;100.00
14067;BME280;7108;42.684;23.350;2022-12-20T07:09:16;97077.66;;;2.88;100.00
14067;BME280;7108;42.684;23.350;2022-12-20T07:11:41;97069.34;;;3.84;96.79
14067;BME280;7108;42.684;23.350;2022-12-20T07:14:07;97043.69;;;5.04;84.27
14067;BME280;7108;42.684;23.350;2022-12-20T07:16:33;97062.34;;;5.70;69.58
14067;BME280;7108;42.684;23.350;2022-12-20T07:18:58;97053.66;;;5.88;62.29
14067;BME280;7108;42.684;23.350;2022-12-20T07:21:24;97049.34;;;6.15;61.73
14067;BME280;7108;42.684;23.350;2022-12-20T07:23:49;97059.41;;;6.65;60.21
14067;BME280;7108;42.684;23.350;2022-12-20T07:26:14;97056.03;;;6.36;58.48
14067;BME280;7108;42.684;23.350;2022-12-20T07:28:41;97060.16;;;6.70;58.98
14067;BME280;7108;42.684;23.350;2022-12-20T07:31:06;97059.13;;;6.85;56.93
14067;BME280;7108;42.684;23.350;2022-12-20T07:33:32;97058.56;;;6.28;57.61
14067;BME280;7108;42.684;23.350;2022-12-20T07:36:06;97068.78;;;5.69;60.77
14067;BME280;7108;42.684;23.350;2022-12-20T07:38:32;97067.00;;;4.88;64.33
14067;BME280;7108;42.684;23.350;2022-12-20T07:40:58;97042.84;;;4.17;70.78
14067;BME280;7108;42.684;23.350;2022-12-20T07:43:23;97064.56;;;3.86;75.18
14067;BME280;7108;42.684;23.350;2022-12-20T07:45:53;97063.03;;;3.25;81.37
14067;BME280;7108;42.684;23.350;2022-12-20T07:48:20;97059.84;;;3.03;86.46
14067;BME280;7108;42.684;23.350;2022-12-20T07:50:45;97041.69;;;2.56;90.11
14067;BME280;7108;42.684;23.350;2022-12-20T07:53:11;97048.28;;;2.33;94.66
14067;BME280;7108;42.684;23.350;2022-12-20T07:55:37;97062.47;;;2.02;97.02
14067;BME280;7108;42.684;23.350;2022-12-20T07:58:05;97057.69;;;1.94;99.74
14067;BME280;7108;42.684;23.350;2022-12-20T08:00:34;97026.97;;;1.62;100.00
14067;BME280;7108;42.684;23.350;2022-12-20T08:03:07;97065.53;;;1.70;100.00
14067;BME280;7108;42.684;23.350;2022-12-20T08:05:37;97047.00;;;1.38;100.00
14067;BME280;7108;42.684;23.350;2022-12-20T08:08:05;97064.09;;;1.52;100.00
14067;BME280;7108;42.684;23.350;2022-12-20T08:10:31;97061.16;;;1.49;100.00
14067;BME280;7108;42.684;23.350;2022-12-20T08:12:57;97030.28;;;1.07;100.00
14067;BME280;7108;42.684;23.350;2022-12-20T08:15:24;97034.53;;;1.03;100.00
14067;BME280;7108;42.684;23.350;2022-12-20T08:17:50;97055.25;;;1.06;100.00
14067;BME280;7108;42.684;23.350;2022-12-20T08:20:16;97058.69;;;1.06;100.00
14067;BME280;7108;42.684;23.350;2022-12-20T08:22:41;97013.63;;;0.75;100.00
14067;BME280;7108;42.684;23.350;2022-12-20T08:25:07;97062.03;;;0.92;100.00
14067;BME280;7108;42.684;23.350;2022-12-20T08:27:33;97052.16;;;0.82;100.00
14067;BME280;7108;42.684;23.350;2022-12-20T08:29:58;97032.97;;;0.75;100.00
14067;BME280;7108;42.684;23.350;2022-12-20T08:32:24;97032.88;;;0.65;100.00
14067;BME280;7108;42.684;23.350;2022-12-20T08:34:51;97054.84;;;0.87;100.00
14067;BME280;7108;42.684;23.350;2022-12-20T08:37:16;97032.78;;;0.87;100.00
14067;BME280;7108;42.684;23.350;2022-12-20T08:39:42;97037.81;;;0.83;100.00
14067;BME280;7108;42.684;23.350;2022-12-20T08:42:08;97043.09;;;0.83;100.00
14067;BME280;7108;42.684;23.350;2022-12-20T08:44:33;97020.22;;;0.72;100.00
14067;BME280;7108;42.684;23.350;2022-12-20T08:46:59;97031.19;;;0.86;100.00
14067;BME280;7108;42.684;23.350;2022-12-20T08:49:24;97046.97;;;0.97;100.00
14067;BME280;7108;42.684;23.350;2022-12-20T08:51:49;97014.53;;;0.90;100.00
14067;BME280;7108;42.684;23.350;2022-12-20T08:54:15;97038.88;;;1.19;100.00
14067;BME280;7108;42.684;23.350;2022-12-20T08:56:41;97026.38;;;1.14;100.00
14067;BME280;7108;42.684;23.350;2022-12-20T08:59:07;97011.19;;;1.05;100.00
14067;BME280;7108;42.684;23.350;2022-12-20T09:01:33;97018.13;;;1.11;100.00
14067;BME280;7108;42.684;23.350;2022-12-20T09:03:59;97028.38;;;1.33;100.00
14067;BME280;7108;42.684;23.350;2022-12-20T09:06:25;97017.22;;;1.31;100.00
14067;BME280;7108;42.684;23.350;2022-12-20T09:08:51;97027.66;;;1.43;100.00
14067;BME280;7108;42.684;23.350;2022-12-20T09:11:18;97024.19;;;1.42;100.00
14067;BME280;7108;42.684;23.350;2022-12-20T09:13:46;97014.59;;;1.36;100.00
14067;BME280;7108;42.684;23.350;2022-12-20T09:16:13;96987.47;;;1.29;100.00
14067;BME280;7108;42.684;23.350;2022-12-20T09:18:39;96988.25;;;1.30;100.00
14067;BME280;7108;42.684;23.350;2022-12-20T09:21:06;97009.38;;;1.51;99.89
14067;BME280;7108;42.684;23.350;2022-12-20T09:23:34;97005.13;;;1.55;100.00
14067;BME280;7108;42.684;23.350;2022-12-20T09:26:02;96987.88;;;1.58;99.94
14067;BME280;7108;42.684;23.350;2022-12-20T09:28:28;96988.72;;;1.63;100.00
14067;BME280;7108;42.684;23.350;2022-12-20T09:30:59;96988.25;;;1.76;96.82
14067;BME280;7108;42.684;23.350;2022-12-20T09:33:26;96986.34;;;1.72;95.69
14067;BME280;7108;42.684;23.350;2022-12-20T09:35:52;96984.19;;;1.64;93.83
14067;BME280;7108;42.684;23.350;2022-12-20T09:38:18;96987.94;;;1.68;91.38
14067;BME280;7108;42.684;23.350;2022-12-20T09:40:46;96979.50;;;1.81;92.90
14067;BME280;7108;42.684;23.350;2022-12-20T09:43:14;96979.81;;;1.89;89.24
14067;BME280;7108;42.684;23.350;2022-12-20T09:45:40;96933.72;;;1.64;87.04
14067;BME280;7108;42.684;23.350;2022-12-20T09:48:15;96935.88;;;1.72;87.58
14067;BME280;7108;42.684;23.350;2022-12-20T09:51:02;96956.13;;;1.92;87.38
14067;BME280;7108;42.684;23.350;2022-12-20T09:56:05;96952.72;;;2.07;86.41
14067;BME280;7108;42.684;23.350;2022-12-20T10:01:16;96913.41;;;2.04;85.86
14067;BME280;7108;42.684;23.350;2022-12-20T10:03:42;96926.72;;;2.14;84.80
14067;BME280;7108;42.684;23.350;2022-12-20T10:06:21;96935.75;;;2.28;80.51
14067;BME280;7108;42.684;23.350;2022-12-20T10:11:45;96926.75;;;2.49;80.86
14067;BME280;7108;42.684;23.350;2022-12-20T10:14:29;96924.88;;;2.49;78.24
14067;BME280;7108;42.684;23.350;2022-12-20T10:20:35;96888.69;;;2.63;76.29
14067;BME280;7108;42.684;23.350;2022-12-20T10:23:26;96879.38;;;2.75;72.97
14067;BME280;7108;42.684;23.350;2022-12-20T10:25:56;96874.84;;;2.71;72.58
14067;BME280;7108;42.684;23.350;2022-12-20T10:28:28;96872.44;;;2.79;71.40
14067;BME280;7108;42.684;23.350;2022-12-20T10:30:58;96851.69;;;2.76;72.34
14067;BME280;7108;42.684;23.350;2022-12-20T10:33:26;96824.03;;;2.62;72.88
14067;BME280;7108;42.684;23.350;2022-12-20T10:35:51;96787.63;;;2.48;71.49
14067;BME280;7108;42.684;23.350;2022-12-20T10:38:18;96838.66;;;2.80;70.83
14067;BME280;7108;42.684;23.350;2022-12-20T10:40:59;96841.03;;;2.86;69.97
14067;BME280;7108;42.684;23.350;2022-12-20T10:43:26;96836.22;;;2.88;69.42
14067;BME280;7108;42.684;23.350;2022-12-20T10:45:56;96830.13;;;2.78;71.88
14067;BME280;7108;42.684;23.350;2022-12-20T10:48:28;96816.81;;;2.78;73.50
14067;BME280;7108;42.684;23.350;2022-12-20T10:51:00;96818.16;;;2.80;76.01
14067;BME280;7108;42.684;23.350;2022-12-20T10:53:27;96827.44;;;2.88;74.90
14067;BME280;7108;42.684;23.350;2022-12-20T10:56:03;96825.81;;;2.97;70.16
14067;BME280;7108;42.684;23.350;2022-12-20T10:58:34;96811.19;;;2.94;69.21
14067;BME280;7108;42.684;23.350;2022-12-20T11:01:18;96812.25;;;2.93;69.83
14067;BME280;7108;42.684;23.350;2022-12-20T11:04:04;96816.22;;;3.06;70.25
14067;BME280;7108;42.684;23.350;2022-12-20T11:06:42;96795.22;;;2.94;68.51
14067;BME280;7108;42.684;23.350;2022-12-20T11:12:03;96797.53;;;3.21;67.16
14067;BME280;7108;42.684;23.350;2022-12-20T11:14:33;96770.16;;;3.00;65.30
14067;BME280;7108;42.684;23.350;2022-12-20T11:17:01;96792.44;;;3.24;64.55
14067;BME280;7108;42.684;23.350;2022-12-20T11:22:42;96786.78;;;3.35;64.77
14067;BME280;7108;42.684;23.350;2022-12-20T11:27:54;96780.28;;;3.56;63.95
14067;BME280;7108;42.684;23.350;2022-12-20T11:30:24;96778.66;;;3.60;61.60
14067;BME280;7108;42.684;23.350;2022-12-20T11:32:57;96777.84;;;3.65;60.92
14067;BME280;7108;42.684;23.350;2022-12-20T11:49:21;96752.84;;;3.89;59.16
14067;BME280;7108;42.684;23.350;2022-12-20T11:52:04;96754.94;;;3.97;58.69
14067;BME280;7108;42.684;23.350;2022-12-20T11:54:41;96746.69;;;3.93;58.22
14067;BME280;7108;42.684;23.350;2022-12-20T11:57:18;96734.38;;;3.97;58.88
14067;BME280;7108;42.684;23.350;2022-12-20T11:59:59;96737.75;;;4.13;59.25
14067;BME280;7108;42.684;23.350;2022-12-20T12:02:54;96711.66;;;4.05;57.30
14067;BME280;7108;42.684;23.350;2022-12-20T12:08:04;96687.22;;;3.98;55.15
14067;BME280;7108;42.684;23.350;2022-12-20T12:10:35;96719.22;;;4.26;55.56
14067;BME280;7108;42.684;23.350;2022-12-20T12:13:14;96714.38;;;4.28;55.19
14067;BME280;7108;42.684;23.350;2022-12-20T12:18:47;96726.59;;;4.34;55.34
14067;BME280;7108;42.684;23.350;2022-12-20T12:21:15;96725.75;;;4.39;54.70
14067;BME280;7108;42.684;23.350;2022-12-20T12:26:26;96712.31;;;4.49;53.90
14067;BME280;7108;42.684;23.350;2022-12-20T12:29:02;96698.97;;;4.49;53.73
14067;BME280;7108;42.684;23.350;2022-12-20T12:44:59;96695.28;;;4.68;53.44
14067;BME280;7108;42.684;23.350;2022-12-20T12:47:39;96703.19;;;4.78;50.98
14067;BME280;7108;42.684;23.350;2022-12-20T12:50:24;96708.22;;;4.79;50.40
14067;BME280;7108;42.684;23.350;2022-12-20T12:52:53;96704.25;;;4.77;49.89
14067;BME280;7108;42.684;23.350;2022-12-20T13:00:56;96685.91;;;4.70;50.45
14067;BME280;7108;42.684;23.350;2022-12-20T13:03:41;96688.53;;;4.75;51.07
14067;BME280;7108;42.684;23.350;2022-12-20T13:25:01;96678.22;;;4.87;50.04
14067;BME280;7108;42.684;23.350;2022-12-20T13:40:49;96653.09;;;4.88;47.57
14067;BME280;7108;42.684;23.350;2022-12-20T13:51:05;96646.72;;;4.66;49.04
14067;BME280;7108;42.684;23.350;2022-12-20T13:53:34;96658.94;;;4.72;49.18
14067;BME280;7108;42.684;23.350;2022-12-20T13:59:02;96638.19;;;4.46;48.34
14067;BME280;7108;42.684;23.350;2022-12-20T14:01:28;96654.44;;;4.44;47.74
14067;BME280;7108;42.684;23.350;2022-12-20T14:03:55;96665.28;;;4.53;48.09
14067;BME280;7108;42.684;23.350;2022-12-20T14:06:23;96648.25;;;4.49;48.41
14067;BME280;7108;42.684;23.350;2022-12-20T14:08:50;96648.25;;;4.49;49.62
14067;BME280;7108;42.684;23.350;2022-12-20T14:11:19;96602.69;;;4.22;50.23
14067;BME280;7108;42.684;23.350;2022-12-20T14:13:58;96651.88;;;4.57;50.36
14067;BME280;7108;42.684;23.350;2022-12-20T14:16:26;96644.41;;;4.59;48.19
14067;BME280;7108;42.684;23.350;2022-12-20T14:21:29;96613.47;;;4.35;47.70
14067;BME280;7108;42.684;23.350;2022-12-20T14:23:56;96649.00;;;4.54;47.75
14067;BME280;7108;42.684;23.350;2022-12-20T14:26:28;96637.94;;;4.42;47.58
14067;BME280;7108;42.684;23.350;2022-12-20T14:28:58;96620.94;;;4.33;47.96
14067;BME280;7108;42.684;23.350;2022-12-20T14:31:39;96624.66;;;4.37;49.18
14067;BME280;7108;42.684;23.350;2022-12-20T14:36:38;96627.31;;;4.37;47.91
14067;BME280;7108;42.684;23.350;2022-12-20T14:39:27;96637.72;;;4.39;52.07
14067;BME280;7108;42.684;23.350;2022-12-20T14:44:29;96641.84;;;4.26;50.22
14067;BME280;7108;42.684;23.350;2022-12-20T14:47:23;96635.44;;;4.27;51.82
14067;BME280;7108;42.684;23.350;2022-12-20T14:53:21;96630.53;;;4.11;53.45
14067;BME280;7108;42.684;23.350;2022-12-20T14:55:48;96618.84;;;4.07;53.48
14067;BME280;7108;42.684;23.350;2022-12-20T14:58:27;96632.91;;;4.12;56.34
14067;BME280;7108;42.684;23.350;2022-12-20T15:03:48;96624.72;;;4.09;59.17
14067;BME280;7108;42.684;23.350;2022-12-20T15:06:31;96622.88;;;4.04;59.10
14067;BME280;7108;42.684;23.350;2022-12-20T15:08:57;96609.72;;;3.89;63.19
14067;BME280;7108;42.684;23.350;2022-12-20T15:11:23;96588.53;;;3.75;64.26
14067;BME280;7108;42.684;23.350;2022-12-20T15:13:52;96622.94;;;3.99;62.82
14067;BME280;7108;42.684;23.350;2022-12-20T15:16:26;96603.91;;;3.83;62.38
14067;BME280;7108;42.684;23.350;2022-12-20T15:18:59;96622.47;;;3.92;63.45